Paramount Helsinki — 2CWB3 — position and weather

sailwx.info

Track history (hours):
 
Tides and Currents Weather Stations Pressure Air Temp Water Temp Dewpoint Dewpoint Depression Visibility Wind Speed Wind Dir Waves Ship Positions

Paramount Helsinki

Last reported at 2016-Jan-13 08:07 UTC. Time now 2016-Feb-10 22:02 UTC.
Position N 24°16' W 018°27'.
Warning: this ship's position is 28 days out of date.

Length 250 m; draft 8.2 m.

Type: Ship. MMSI: 235076275.

Date/timePositionNaut miles runAvg speedWind from/ knotsBaromVisibWave heightAir tempDewpointWater temp
2016-Jan-13 08:07N 24°16' W 018°27'2113.3
2016-Jan-13 06:33N 24°37' W 018°28'2612.9
2016-Jan-13 04:30N 25°03' W 018°29'  
2016-Jan-09 03:31N 41°42' W 010°47'10 9.5
2016-Jan-09 02:28N 41°33' W 010°52'1413.8
2016-Jan-09 01:29N 41°46' W 010°45'1515.9
2016-Jan-09 00:33N 41°59' W 010°37'  
2016-Jan-06 06:23N 46°50' W 003°07'2 1.9
2016-Jan-06 05:26N 46°52' W 003°09'2 2.1
2016-Jan-06 04:33N 46°53' W 003°10'2 2.1
2016-Jan-06 03:33N 46°55' W 003°12'2 2.2
2016-Jan-06 02:33N 46°57' W 003°14'2 2.3
2016-Jan-06 01:33N 46°58' W 003°17'2 2.1
2016-Jan-06 00:33N 47°00' W 003°19'2 2.1
2016-Jan-05 23:33N 47°02' W 003°21'2 2.1
2016-Jan-05 22:33N 47°03' W 003°23'2 2.1
2016-Jan-05 21:33N 47°04' W 003°26'2 2.0
2016-Jan-05 20:33N 47°05' W 003°28'3 2.3
2016-Jan-05 19:22N 47°07' W 003°32'2 2.6
2016-Jan-05 18:33N 47°08' W 003°34'3 2.5
2016-Jan-05 17:33N 47°09' W 003°37'2 2.5
2016-Jan-05 16:33N 47°10' W 003°40'3 2.4
2016-Jan-05 15:29N 47°12' W 003°43'2 2.4
2016-Jan-05 14:33N 47°13' W 003°46'3 2.6
2016-Jan-05 13:33N 47°15' W 003°49'2 2.5
2016-Jan-05 12:33N 47°16' W 003°52'3 2.6
2016-Jan-05 11:33N 47°17' W 003°56'3 2.8
2016-Jan-05 10:33N 47°19' W 003°59'3 2.8
2016-Jan-05 09:33N 47°20' W 004°03'3 2.8
2016-Jan-05 08:27N 47°22' W 004°07'3 2.7
2016-Jan-05 07:21N 47°23' W 004°11'35 2.8
2016-Jan-04 19:03N 47°42' W 004°54'3 5.1
2016-Jan-04 18:33N 47°44' W 004°52'27 5.1
2016-Jan-04 13:20N 47°31' W 004°18'4 4.6
2016-Jan-04 12:31N 47°29' W 004°13'4 4.5
2016-Jan-04 11:33N 47°27' W 004°08'4 4.2
2016-Jan-04 10:33N 47°25' W 004°02'5 5.0
2016-Jan-04 09:33N 47°22' W 003°56'4 4.0
2016-Jan-04 08:33N 47°20' W 003°51'4 4.0
2016-Jan-04 07:33N 47°19' W 003°45'4 3.5
2016-Jan-04 06:33N 47°18' W 003°40'5 4.6
2016-Jan-04 05:33N 47°15' W 003°36'4 4.1
2016-Jan-04 04:33N 47°13' W 003°30'4 4.0
2016-Jan-04 03:33N 47°10' W 003°25'4 4.2
2016-Jan-04 02:33N 47°08' W 003°20'5 5.2
2016-Jan-04 01:33N 47°07' W 003°13'6 5.6
2016-Jan-04 00:33N 47°05' W 003°05'6 5.9
2016-Jan-03 23:33N 47°04' W 002°56'6 5.8
2016-Jan-03 22:33N 47°02' W 002°48'6 6.2
2016-Jan-03 21:33N 47°01' W 002°39'8 7.9
2016-Jan-03 20:33N 47°04' W 002°28'5 5.3
2016-Jan-03 19:33N 47°07' W 002°22'7 7.4
2016-Jan-03 18:33N 47°13' W 002°16'8 8.3
2016-Jan-03 17:33N 47°18' W 002°06'  
Track history (hours):
 
Tides and Currents Weather Stations Pressure Air Temp Water Temp Dewpoint Dewpoint Depression Visibility Wind Speed Wind Dir Waves Ship Positions

Paramount Helsinki

Last reported at 2016-Jan-13 08:07 UTC. Time now 2016-Feb-10 22:02 UTC.
Position N 24°16' W 018°27'.
Warning: this ship's position is 28 days out of date.

Length 250 m; draft 8.2 m.

Type: Ship. MMSI: 235076275.

Date/timePositionNaut miles runAvg speedWind from/ knotsBaromVisibWave heightAir tempDewpointWater temp
2016-Jan-13 08:07N 24°16' W 018°27'2113.3
2016-Jan-13 06:33N 24°37' W 018°28'2612.9
2016-Jan-13 04:30N 25°03' W 018°29'  
2016-Jan-09 03:31N 41°42' W 010°47'10 9.5
2016-Jan-09 02:28N 41°33' W 010°52'1413.8
2016-Jan-09 01:29N 41°46' W 010°45'1515.9
2016-Jan-09 00:33N 41°59' W 010°37'  
2016-Jan-06 06:23N 46°50' W 003°07'2 1.9
2016-Jan-06 05:26N 46°52' W 003°09'2 2.1
2016-Jan-06 04:33N 46°53' W 003°10'2 2.1
2016-Jan-06 03:33N 46°55' W 003°12'2 2.2
2016-Jan-06 02:33N 46°57' W 003°14'2 2.3
2016-Jan-06 01:33N 46°58' W 003°17'2 2.1
2016-Jan-06 00:33N 47°00' W 003°19'2 2.1
2016-Jan-05 23:33N 47°02' W 003°21'2 2.1
2016-Jan-05 22:33N 47°03' W 003°23'2 2.1
2016-Jan-05 21:33N 47°04' W 003°26'2 2.0
2016-Jan-05 20:33N 47°05' W 003°28'3 2.3
2016-Jan-05 19:22N 47°07' W 003°32'2 2.6
2016-Jan-05 18:33N 47°08' W 003°34'3 2.5
2016-Jan-05 17:33N 47°09' W 003°37'2 2.5
2016-Jan-05 16:33N 47°10' W 003°40'3 2.4
2016-Jan-05 15:29N 47°12' W 003°43'2 2.4
2016-Jan-05 14:33N 47°13' W 003°46'3 2.6
2016-Jan-05 13:33N 47°15' W 003°49'2 2.5
2016-Jan-05 12:33N 47°16' W 003°52'3 2.6
2016-Jan-05 11:33N 47°17' W 003°56'3 2.8
2016-Jan-05 10:33N 47°19' W 003°59'3 2.8
2016-Jan-05 09:33N 47°20' W 004°03'3 2.8
2016-Jan-05 08:27N 47°22' W 004°07'3 2.7
2016-Jan-05 07:21N 47°23' W 004°11'35 2.8
2016-Jan-04 19:03N 47°42' W 004°54'3 5.1
2016-Jan-04 18:33N 47°44' W 004°52'27 5.1
2016-Jan-04 13:20N 47°31' W 004°18'4 4.6
2016-Jan-04 12:31N 47°29' W 004°13'4 4.5
2016-Jan-04 11:33N 47°27' W 004°08'4 4.2
2016-Jan-04 10:33N 47°25' W 004°02'5 5.0
2016-Jan-04 09:33N 47°22' W 003°56'4 4.0
2016-Jan-04 08:33N 47°20' W 003°51'4 4.0
2016-Jan-04 07:33N 47°19' W 003°45'4 3.5
2016-Jan-04 06:33N 47°18' W 003°40'5 4.6
2016-Jan-04 05:33N 47°15' W 003°36'4 4.1
2016-Jan-04 04:33N 47°13' W 003°30'4 4.0
2016-Jan-04 03:33N 47°10' W 003°25'4 4.2
2016-Jan-04 02:33N 47°08' W 003°20'5 5.2
2016-Jan-04 01:33N 47°07' W 003°13'6 5.6
2016-Jan-04 00:33N 47°05' W 003°05'6 5.9
2016-Jan-03 23:33N 47°04' W 002°56'6 5.8
2016-Jan-03 22:33N 47°02' W 002°48'6 6.2
2016-Jan-03 21:33N 47°01' W 002°39'8 7.9
2016-Jan-03 20:33N 47°04' W 002°28'5 5.3
2016-Jan-03 19:33N 47°07' W 002°22'7 7.4
2016-Jan-03 18:33N 47°13' W 002°16'8 8.3
2016-Jan-03 17:33N 47°18' W 002°06'  

Dump ship's entire track history